Time;durP1;ratioP1;P1;durP2;ratioP2;P2;SDS_P1;SDS_P2;PMS_P1;PMS_P2;Temp;Humidity;BMP_temperature;BMP_pressure;BME280_temperature;BME280_humidity;BME280_pressure;Samples;Min_cycle;Max_cycle;Signal;HPM_P1;HPM_P2
2021/11/04 00:01:06;;;;;;;3.08;1.05;;;18.70;79.50;;;;;;5065693;28;20096;-66
2021/11/04 00:03:32;;;;;;;5.35;2.03;;;18.60;79.40;;;;;;5060692;28;20020;-69
2021/11/04 00:05:59;;;;;;;6.75;1.40;;;18.60;79.40;;;;;;5061669;28;20111;-66
2021/11/04 00:08:25;;;;;;;4.30;1.75;;;18.60;79.60;;;;;;5058825;28;20159;-68
2021/11/04 00:10:53;;;;;;;5.20;1.70;;;18.60;79.90;;;;;;5064673;28;20033;-65
2021/11/04 00:13:20;;;;;;;8.05;1.65;;;18.60;79.70;;;;;;5056538;28;20468;-74
2021/11/04 00:15:47;;;;;;;5.60;1.60;;;18.60;79.60;;;;;;5064375;28;20044;-67
2021/11/04 00:18:13;;;;;;;6.00;1.00;;;18.60;79.80;;;;;;5062703;28;20390;-71
2021/11/04 00:20:40;;;;;;;7.15;2.35;;;18.60;79.70;;;;;;5064776;28;20032;-75
2021/11/04 00:23:06;;;;;;;6.47;1.30;;;18.70;80.00;;;;;;5060765;28;20422;-68
2021/11/04 00:25:33;;;;;;;6.15;1.42;;;18.60;79.80;;;;;;5061841;28;20093;-69
2021/11/04 00:27:59;;;;;;;4.20;1.20;;;18.60;79.90;;;;;;5060167;28;20052;-71
2021/11/04 00:30:26;;;;;;;8.70;1.58;;;18.60;80.10;;;;;;5064518;28;20016;-68
2021/11/04 00:32:54;;;;;;;4.05;1.08;;;18.60;80.00;;;;;;5063063;28;20073;-68
2021/11/04 00:35:21;;;;;;;7.43;1.58;;;18.60;80.20;;;;;;5059154;28;20045;-65
2021/11/04 00:37:48;;;;;;;2.30;1.48;;;18.60;80.30;;;;;;5062243;28;20045;-65
2021/11/04 00:40:18;;;;;;;5.80;1.50;;;18.70;80.40;;;;;;5057917;28;20521;-66
2021/11/04 00:42:45;;;;;;;5.00;1.00;;;18.70;80.40;;;;;;5060003;28;20620;-66
2021/11/04 00:45:13;;;;;;;4.88;1.95;;;18.60;80.20;;;;;;5059730;28;20036;-69
2021/11/04 00:47:40;;;;;;;9.02;1.65;;;18.70;80.30;;;;;;5063051;28;20337;-66
2021/11/04 00:50:07;;;;;;;3.85;1.65;;;18.70;80.30;;;;;;5064350;28;20501;-65
2021/11/04 00:52:34;;;;;;;5.32;2.22;;;18.70;80.40;;;;;;5060393;28;20074;-67
2021/11/04 00:55:01;;;;;;;3.55;1.23;;;18.70;80.50;;;;;;5059515;28;20013;-68
2021/11/04 00:57:27;;;;;;;3.85;1.80;;;18.70;80.50;;;;;;5056619;28;20021;-65
2021/11/04 00:59:54;;;;;;;9.48;2.47;;;18.80;80.60;;;;;;5058397;28;20026;-74
2021/11/04 01:02:20;;;;;;;10.45;1.73;;;18.80;80.50;;;;;;5062191;28;20043;-65
2021/11/04 01:04:47;;;;;;;6.38;1.20;;;18.80;80.70;;;;;;5061566;28;20684;-69
2021/11/04 01:07:14;;;;;;;6.60;2.38;;;18.80;80.70;;;;;;5062849;28;20396;-71
2021/11/04 01:09:40;;;;;;;6.53;2.00;;;18.80;80.60;;;;;;5060107;28;20418;-65
2021/11/04 01:12:07;;;;;;;6.40;1.83;;;18.80;80.50;;;;;;5064751;28;20028;-68
2021/11/04 01:14:34;;;;;;;9.02;1.83;;;18.70;80.40;;;;;;5059862;28;20020;-67
2021/11/04 01:17:00;;;;;;;4.10;1.13;;;18.70;80.40;;;;;;5059536;28;20548;-69
2021/11/04 01:19:27;;;;;;;4.97;2.00;;;18.70;80.50;;;;;;5057434;28;20032;-71
2021/11/04 01:21:53;;;;;;;6.90;1.60;;;18.70;80.60;;;;;;5059183;28;20515;-71
2021/11/04 01:24:20;;;;;;;4.40;1.70;;;18.70;80.50;;;;;;5063280;28;20043;-70
2021/11/04 01:26:46;;;;;;;4.97;1.77;;;18.70;80.60;;;;;;5063916;28;20123;-65
2021/11/04 01:29:13;;;;;;;5.97;1.30;;;18.70;80.60;;;;;;5060536;28;20004;-70
2021/11/04 01:31:39;;;;;;;6.15;1.33;;;18.70;80.70;;;;;;5064055;28;20039;-72
2021/11/04 01:34:06;;;;;;;4.15;1.30;;;18.70;80.90;;;;;;5062129;28;20103;-73
2021/11/04 01:36:33;;;;;;;4.13;1.25;;;18.60;80.70;;;;;;5064799;28;20012;-69
2021/11/04 01:38:59;;;;;;;6.18;1.73;;;18.60;80.80;;;;;;5058414;28;20025;-66
2021/11/04 01:41:26;;;;;;;2.40;1.17;;;18.60;80.90;;;;;;5058832;28;20032;-74
2021/11/04 01:43:52;;;;;;;4.00;1.38;;;18.60;81.10;;;;;;5063669;28;20163;-67
2021/11/04 01:46:21;;;;;;;4.20;1.58;;;18.60;81.30;;;;;;5059564;28;20020;-72
2021/11/04 01:48:48;;;;;;;5.47;1.63;;;18.60;81.30;;;;;;5062281;28;20108;-70
2021/11/04 01:51:16;;;;;;;7.80;2.25;;;18.60;81.40;;;;;;5059102;28;20025;-64
2021/11/04 01:53:43;;;;;;;8.73;2.13;;;18.60;81.30;;;;;;5064117;28;20114;-71
2021/11/04 01:56:09;;;;;;;9.38;1.30;;;18.60;81.50;;;;;;5061564;28;20036;-73
2021/11/04 01:58:36;;;;;;;4.35;1.33;;;18.60;81.50;;;;;;5065208;28;20116;-72
2021/11/04 02:01:03;;;;;;;6.25;1.20;;;18.60;81.50;;;;;;5061600;28;20499;-73
2021/11/04 02:03:37;;;;;;;5.68;1.30;;;18.60;81.60;;;;;;5061569;28;20016;-70
2021/11/04 02:06:18;;;;;;;8.20;1.75;;;18.60;81.70;;;;;;5056558;28;20134;-72
2021/11/04 02:09:11;;;;;;;10.32;1.85;;;18.70;81.80;;;;;;5056929;28;20035;-69
2021/11/04 02:11:43;;;;;;;7.35;1.60;;;18.70;82.40;;;;;;5059506;28;20518;-67
2021/11/04 02:14:13;;;;;;;3.88;1.48;;;18.60;81.60;;;;;;5061350;28;20040;-72
2021/11/04 02:16:41;;;;;;;8.40;1.83;;;18.60;81.70;;;;;;5056023;28;20070;-71
2021/11/04 02:19:33;;;;;;;7.20;2.38;;;18.60;81.60;;;;;;5063685;28;20028;-70
2021/11/04 02:22:02;;;;;;;3.35;1.67;;;18.60;81.70;;;;;;5047960;28;20052;-72
2021/11/04 02:24:42;;;;;;;5.90;1.50;;;18.60;81.70;;;;;;5059545;28;20029;-67
2021/11/04 02:27:11;;;;;;;6.28;1.42;;;18.50;81.60;;;;;;5058171;28;20031;-74
2021/11/04 02:29:42;;;;;;;7.03;1.42;;;18.50;81.80;;;;;;5060000;28;20023;-67
2021/11/04 02:32:10;;;;;;;8.68;1.63;;;18.50;81.90;;;;;;5061269;28;20029;-73
2021/11/04 02:34:39;;;;;;;5.93;1.73;;;18.50;82.00;;;;;;5061713;28;20055;-68
2021/11/04 02:37:10;;;;;;;8.07;1.30;;;18.50;82.00;;;;;;5062652;28;20522;-68
2021/11/04 02:39:37;;;;;;;2.63;1.00;;;18.50;82.10;;;;;;5061479;28;20052;-67
2021/11/04 02:42:04;;;;;;;6.63;1.60;;;18.50;82.00;;;;;;5062414;28;20017;-74
2021/11/04 02:44:31;;;;;;;4.93;1.38;;;18.50;82.00;;;;;;5063474;28;20055;-76
2021/11/04 02:46:58;;;;;;;4.80;1.60;;;18.50;82.00;;;;;;5061631;28;20024;-68
2021/11/04 02:49:26;;;;;;;5.57;1.65;;;18.50;81.90;;;;;;5055909;28;20013;-67
2021/11/04 02:51:53;;;;;;;4.75;2.05;;;18.50;81.90;;;;;;5061910;28;20033;-71
2021/11/04 02:54:20;;;;;;;6.32;1.40;;;18.50;82.00;;;;;;5060741;28;20013;-71
2021/11/04 02:56:51;;;;;;;5.03;1.63;;;18.50;81.90;;;;;;5061843;28;20353;-67
2021/11/04 02:59:24;;;;;;;9.60;1.35;;;18.50;81.90;;;;;;5058362;28;20577;-67
2021/11/04 03:01:53;;;;;;;4.88;1.83;;;18.50;81.90;;;;;;5062985;28;20035;-67
2021/11/04 03:04:21;;;;;;;6.00;2.17;;;18.40;82.00;;;;;;5060582;28;20037;-68
2021/11/04 03:06:48;;;;;;;4.80;1.58;;;18.40;82.00;;;;;;5053749;28;20111;-67
2021/11/04 03:09:16;;;;;;;4.28;1.38;;;18.40;82.20;;;;;;5061808;28;20485;-67
2021/11/04 03:11:44;;;;;;;5.40;1.50;;;18.40;82.20;;;;;;5054018;28;20017;-67
2021/11/04 03:14:11;;;;;;;8.10;2.13;;;18.40;82.30;;;;;;5059461;28;20017;-67
2021/11/04 03:16:40;;;;;;;6.88;1.15;;;18.40;82.30;;;;;;5059143;28;20032;-75
2021/11/04 03:19:08;;;;;;;6.38;1.50;;;18.40;82.10;;;;;;5064957;28;20483;-68
2021/11/04 03:21:38;;;;;;;10.23;1.80;;;18.40;82.10;;;;;;5062303;28;20025;-68
2021/11/04 03:24:07;;;;;;;8.07;1.60;;;18.40;82.00;;;;;;5065478;28;20040;-69
2021/11/04 03:26:37;;;;;;;2.88;1.15;;;18.40;82.10;;;;;;5061385;28;20013;-68
2021/11/04 03:29:04;;;;;;;5.95;1.27;;;18.30;81.90;;;;;;5064869;28;20016;-75
2021/11/04 03:31:34;;;;;;;7.43;1.77;;;18.30;82.00;;;;;;5061021;28;20468;-73
2021/11/04 03:34:01;;;;;;;6.28;1.15;;;18.30;82.00;;;;;;5062581;28;20052;-68
2021/11/04 03:36:29;;;;;;;6.80;0.90;;;18.30;82.00;;;;;;5067773;28;20016;-73
2021/11/04 03:38:56;;;;;;;17.45;10.02;;;18.30;82.00;;;;;;5062902;28;20032;-70
2021/11/04 03:41:24;;;;;;;87.25;67.40;;;18.30;82.10;;;;;;5066653;28;21091;-73
2021/11/04 03:43:51;;;;;;;17.85;13.20;;;18.30;82.20;;;;;;5059840;28;20021;-68
2021/11/04 03:46:19;;;;;;;5.28;2.50;;;18.30;82.70;;;;;;5061664;28;20021;-72
2021/11/04 03:48:47;;;;;;;5.72;1.58;;;18.30;81.90;;;;;;5065296;28;20027;-68
2021/11/04 03:51:14;;;;;;;3.70;1.30;;;18.30;82.00;;;;;;5064960;28;20016;-68
2021/11/04 03:53:41;;;;;;;6.60;1.67;;;18.30;82.10;;;;;;5063232;28;20508;-72
2021/11/04 03:56:08;;;;;;;6.30;1.55;;;18.30;82.10;;;;;;5062006;28;20024;-68
2021/11/04 03:58:39;;;;;;;4.97;1.77;;;18.30;82.10;;;;;;5064978;28;20458;-68
2021/11/04 04:01:06;;;;;;;3.03;1.38;;;18.30;82.10;;;;;;5064212;28;20023;-74
2021/11/04 04:03:33;;;;;;;7.75;1.20;;;18.30;82.20;;;;;;5062004;28;20107;-68
2021/11/04 04:06:02;;;;;;;7.05;1.90;;;18.30;82.20;;;;;;5062752;28;20033;-69
2021/11/04 04:08:34;;;;;;;5.93;1.45;;;18.30;82.20;;;;;;5062397;28;20545;-68
2021/11/04 04:11:01;;;;;;;6.85;1.67;;;18.30;82.20;;;;;;5062183;28;20017;-70
2021/11/04 04:13:28;;;;;;;4.38;1.40;;;18.30;82.40;;;;;;5059876;28;20025;-68
2021/11/04 04:15:55;;;;;;;64.38;46.42;;;18.30;82.30;;;;;;5056179;28;20052;-71
2021/11/04 04:18:21;;;;;;;52.60;40.53;;;18.30;82.40;;;;;;5058563;28;20021;-71
2021/11/04 04:20:48;;;;;;;11.95;5.68;;;18.40;82.50;;;;;;5060052;28;20513;-70
2021/11/04 04:23:15;;;;;;;8.82;2.53;;;18.40;82.50;;;;;;5062897;28;20017;-67
2021/11/04 04:25:42;;;;;;;8.85;2.03;;;18.40;82.60;;;;;;5060047;28;20032;-74
2021/11/04 04:28:09;;;;;;;7.13;1.40;;;18.40;82.60;;;;;;5057816;28;20025;-69
2021/11/04 04:30:35;;;;;;;6.50;1.83;;;18.40;82.50;;;;;;5058255;28;20032;-73
2021/11/04 04:33:02;;;;;;;8.63;1.80;;;18.50;82.70;;;;;;5052815;28;20024;-73
2021/11/04 04:35:29;;;;;;;10.40;2.50;;;18.50;82.50;;;;;;5058487;28;20048;-73
2021/11/04 04:37:55;;;;;;;8.80;1.90;;;18.50;82.30;;;;;;5057999;28;20067;-74
2021/11/04 04:40:22;;;;;;;12.13;2.08;;;18.60;82.30;;;;;;5060045;28;20058;-72
2021/11/04 04:42:49;;;;;;;7.95;2.03;;;18.50;82.20;;;;;;5057860;28;20487;-74
2021/11/04 04:45:16;;;;;;;8.15;1.77;;;18.50;82.20;;;;;;5055047;28;20044;-73
2021/11/04 04:47:43;;;;;;;11.05;1.55;;;18.50;82.20;;;;;;5061830;28;20021;-70
2021/11/04 04:50:10;;;;;;;4.97;1.70;;;18.50;82.20;;;;;;5063340;28;20132;-68
2021/11/04 04:52:38;;;;;;;8.73;2.50;;;18.60;82.10;;;;;;5056668;28;20021;-73
2021/11/04 04:55:05;;;;;;;6.22;1.67;;;18.60;81.80;;;;;;5064221;28;20108;-68
2021/11/04 04:57:31;;;;;;;5.35;1.27;;;18.60;81.60;;;;;;5063473;28;20020;-71
2021/11/04 05:00:11;;;;;;;4.82;1.38;;;18.60;81.80;;;;;;5060413;28;20037;-71
2021/11/04 05:02:40;;;;;;;3.25;1.33;;;18.60;81.90;;;;;;5056024;28;20033;-70
2021/11/04 05:05:07;;;;;;;5.03;1.27;;;18.70;81.90;;;;;;5057614;28;20043;-68
2021/11/04 05:07:34;;;;;;;8.60;2.10;;;18.70;82.20;;;;;;5054587;28;20028;-75
2021/11/04 05:10:02;;;;;;;3.40;1.90;;;18.70;81.70;;;;;;5051632;28;20686;-71
2021/11/04 05:12:29;;;;;;;6.40;1.55;;;18.70;81.60;;;;;;5056071;28;20151;-74
2021/11/04 05:14:57;;;;;;;5.82;1.77;;;18.80;81.60;;;;;;5056177;28;20086;-73
2021/11/04 05:17:27;;;;;;;6.07;2.13;;;18.80;81.30;;;;;;5055352;28;20400;-72
2021/11/04 05:19:53;;;;;;;5.70;1.80;;;18.80;81.30;;;;;;5054604;28;20032;-74
2021/11/04 05:22:20;;;;;;;15.85;10.02;;;18.80;81.40;;;;;;5055967;28;20033;-71
2021/11/04 05:24:49;;;;;;;94.68;80.05;;;18.90;81.50;;;;;;5059470;28;20032;-71
2021/11/04 05:27:16;;;;;;;19.50;13.27;;;18.90;81.70;;;;;;5046702;28;20589;-71
2021/11/04 05:30:22;;;;;;;8.90;2.80;;;18.90;81.70;;;;;;5053188;28;20044;-75
2021/11/04 05:33:29;;;;;;;5.90;1.40;;;19.00;81.80;;;;;;5051675;28;20032;-67
2021/11/04 05:36:35;;;;;;;5.35;1.38;;;19.00;81.60;;;;;;5057048;28;20059;-68
2021/11/04 05:39:42;;;;;;;8.30;2.08;;;19.10;81.40;;;;;;5057682;28;20036;-69
2021/11/04 05:42:49;;;;;;;6.65;2.10;;;19.10;81.40;;;;;;5059673;28;20443;-68
2021/11/04 05:45:56;;;;;;;5.25;1.88;;;19.10;81.30;;;;;;5054633;28;20037;-67
2021/11/04 05:49:02;;;;;;;5.60;1.63;;;19.10;81.20;;;;;;5053769;28;20492;-68
2021/11/04 05:52:08;;;;;;;10.82;2.25;;;19.20;81.40;;;;;;5059067;28;20048;-70
2021/11/04 05:55:14;;;;;;;4.63;1.63;;;19.20;81.20;;;;;;5057673;28;20500;-67
2021/11/04 05:58:20;;;;;;;5.18;1.98;;;19.30;81.20;;;;;;5053621;28;20049;-66
2021/11/04 06:01:28;;;;;;;8.15;2.10;;;19.30;81.10;;;;;;5052976;28;20086;-68
2021/11/04 06:04:35;;;;;;;8.73;2.05;;;19.40;81.00;;;;;;5055378;28;20400;-66
2021/11/04 06:07:41;;;;;;;9.88;1.63;;;19.40;80.70;;;;;;5058102;28;20024;-68
2021/11/04 06:10:48;;;;;;;4.63;1.65;;;19.50;80.60;;;;;;5053064;28;20468;-67
2021/11/04 06:13:54;;;;;;;6.68;1.40;;;19.50;80.40;;;;;;5056579;28;20028;-66
2021/11/04 06:17:00;;;;;;;8.82;2.00;;;19.50;80.20;;;;;;5054734;28;20051;-67
2021/11/04 06:20:06;;;;;;;8.68;3.30;;;19.60;80.20;;;;;;5050445;28;20459;-66
2021/11/04 06:23:12;;;;;;;9.07;1.58;;;19.60;80.60;;;;;;5057032;28;20032;-67
2021/11/04 06:25:39;;;;;;;7.63;1.90;;;19.70;80.10;;;;;;5054634;28;20040;-66
2021/11/04 06:28:05;;;;;;;4.72;1.80;;;19.80;79.90;;;;;;5053852;28;20021;-68
2021/11/04 06:30:32;;;;;;;7.38;1.77;;;19.80;79.40;;;;;;5051157;28;20094;-69
2021/11/04 06:32:58;;;;;;;8.02;2.05;;;19.90;79.20;;;;;;5055220;28;20032;-68
2021/11/04 06:35:25;;;;;;;18.77;11.82;;;19.90;78.80;;;;;;5060305;28;20052;-68
2021/11/04 06:37:51;;;;;;;23.35;14.70;;;19.90;78.80;;;;;;5054405;28;20021;-66
2021/11/04 06:40:24;;;;;;;11.13;4.93;;;20.00;78.60;;;;;;5055166;28;20012;-72
2021/11/04 06:43:30;;;;;;;9.43;3.42;;;20.10;78.40;;;;;;5053426;28;20017;-69
2021/11/04 06:46:36;;;;;;;10.85;2.58;;;20.10;78.10;;;;;;5050009;28;20029;-69
2021/11/04 06:49:42;;;;;;;8.15;1.80;;;20.10;77.50;;;;;;5060309;28;20947;-68
2021/11/04 06:52:51;;;;;;;7.10;1.92;;;20.20;78.10;;;;;;5045352;28;20159;-67
2021/11/04 06:55:57;;;;;;;9.10;2.28;;;20.20;77.30;;;;;;5059730;28;20091;-69
2021/11/04 06:58:29;;;;;;;6.43;1.83;;;20.20;77.10;;;;;;5057380;28;20115;-71
2021/11/04 07:00:57;;;;;;;12.93;2.83;;;20.30;76.60;;;;;;5058776;28;20441;-66
2021/11/04 07:03:28;;;;;;;8.07;3.10;;;20.30;76.30;;;;;;5058200;28;20025;-72
2021/11/04 07:06:23;;;;;;;5.97;2.20;;;20.30;76.10;;;;;;5058373;28;20036;-70
2021/11/04 07:08:44;;;;;;;12.02;2.38;;;20.40;75.80;;;;;;5058855;28;20028;-70
2021/11/04 07:11:11;;;;;;;8.48;2.63;;;20.50;75.80;;;;;;5057074;28;20016;-66
2021/11/04 07:13:39;;;;;;;18.80;12.48;;;20.50;74.60;;;;;;5062755;28;20107;-69
2021/11/04 07:16:06;;;;;;;20.38;11.57;;;20.50;74.30;;;;;;5058826;28;20076;-70
2021/11/04 07:18:32;;;;;;;15.73;5.40;;;20.60;74.20;;;;;;5059809;28;20052;-69
2021/11/04 07:21:20;;;;;;;10.98;2.80;;;20.60;74.20;;;;;;5058978;28;20067;-69
2021/11/04 07:23:51;;;;;;;11.32;3.75;;;20.70;74.20;;;;;;5055232;28;20537;-70
2021/11/04 07:26:24;;;;;;;7.85;2.88;;;20.70;73.20;;;;;;5060785;28;20356;-70
2021/11/04 07:28:53;;;;;;;10.38;2.55;;;20.80;72.50;;;;;;5055708;28;20017;-69
2021/11/04 07:31:22;;;;;;;7.40;1.95;;;20.80;72.80;;;;;;5060289;28;20490;-69
2021/11/04 07:33:49;;;;;;;11.93;2.35;;;20.90;72.10;;;;;;5054415;28;20016;-71
2021/11/04 07:36:17;;;;;;;5.90;1.70;;;21.00;71.50;;;;;;5057475;28;20064;-65
2021/11/04 07:38:48;;;;;;;9.10;2.90;;;21.00;70.50;;;;;;5056361;28;20024;-67
2021/11/04 07:41:15;;;;;;;11.88;2.83;;;21.00;69.90;;;;;;5055222;28;20383;-71
2021/11/04 07:43:42;;;;;;;4.75;2.05;;;21.10;70.20;;;;;;5058016;28;20027;-69
2021/11/04 07:46:09;;;;;;;24.05;5.70;;;21.10;69.20;;;;;;5054671;28;20108;-69
2021/11/04 07:48:35;;;;;;;9.82;2.80;;;21.10;69.30;;;;;;5055858;28;20477;-69
2021/11/04 07:51:02;;;;;;;5.68;2.30;;;21.20;69.20;;;;;;5057900;28;20048;-69
2021/11/04 07:53:29;;;;;;;5.97;2.13;;;21.20;68.40;;;;;;5062161;28;20098;-70
2021/11/04 07:55:55;;;;;;;9.52;1.73;;;21.20;68.80;;;;;;5055355;28;20036;-70
2021/11/04 07:58:22;;;;;;;8.50;2.17;;;21.20;68.10;;;;;;5060394;28;20485;-70
2021/11/04 08:01:28;;;;;;;7.13;1.90;;;21.30;66.60;;;;;;5057496;28;20028;-70
2021/11/04 08:04:34;;;;;;;7.13;2.08;;;21.40;67.00;;;;;;5055408;28;20028;-67
2021/11/04 08:07:01;;;;;;;74.40;62.58;;;21.50;66.20;;;;;;5054950;28;20028;-68
2021/11/04 08:09:28;;;;;;;15.43;8.02;;;21.70;66.40;;;;;;5054018;28;20495;-68
2021/11/04 08:12:34;;;;;;;9.50;2.60;;;21.90;66.50;;;;;;5052282;28;20197;-68
2021/11/04 08:15:40;;;;;;;7.32;2.05;;;22.00;65.70;;;;;;5056206;28;20479;-68
2021/11/04 08:18:27;;;;;;;6.15;1.88;;;22.10;65.10;;;;;;5059562;28;20060;-68
2021/11/04 08:20:53;;;;;;;6.20;2.22;;;22.20;65.20;;;;;;5053883;28;20509;-67
2021/11/04 08:23:20;;;;;;;12.93;2.05;;;22.20;65.20;;;;;;5058062;28;20039;-67
2021/11/04 08:25:47;;;;;;;8.52;1.88;;;22.20;64.30;;;;;;5057975;28;20067;-67
2021/11/04 08:28:13;;;;;;;12.07;2.63;;;22.20;63.90;;;;;;5055156;28;20025;-67
2021/11/04 08:30:40;;;;;;;10.73;1.92;;;22.20;62.60;;;;;;5053974;28;20021;-68
2021/11/04 08:33:06;;;;;;;7.65;2.28;;;22.20;63.50;;;;;;5061320;28;20028;-69
2021/11/04 08:35:33;;;;;;;10.95;2.08;;;22.20;62.90;;;;;;5058402;28;20033;-68
2021/11/04 08:37:59;;;;;;;8.95;2.78;;;22.20;64.40;;;;;;5055231;28;20020;-67
2021/11/04 08:40:26;;;;;;;13.80;2.85;;;22.30;64.70;;;;;;5057004;28;20028;-66
2021/11/04 08:42:52;;;;;;;11.55;3.17;;;22.40;66.50;;;;;;5055241;28;20074;-66
2021/11/04 08:45:19;;;;;;;8.75;3.20;;;22.40;66.60;;;;;;5056202;28;20043;-66
2021/11/04 08:47:46;;;;;;;10.80;3.05;;;22.50;66.10;;;;;;5056096;28;20021;-67
2021/11/04 08:50:13;;;;;;;9.30;4.03;;;22.50;65.50;;;;;;5057367;28;20455;-66
2021/11/04 08:52:40;;;;;;;9.95;5.20;;;22.60;63.70;;;;;;5054744;28;20090;-65
2021/11/04 08:55:08;;;;;;;9.48;2.40;;;22.60;62.90;;;;;;5057101;28;20021;-65
2021/11/04 08:57:39;;;;;;;11.43;2.60;;;22.60;62.60;;;;;;5056438;28;20037;-65
2021/11/04 09:00:07;;;;;;;9.60;2.25;;;22.50;63.80;;;;;;5056792;28;20027;-66
2021/11/04 09:02:34;;;;;;;9.68;3.50;;;22.50;65.70;;;;;;5056601;28;20392;-66
2021/11/04 09:05:06;;;;;;;9.55;2.72;;;22.50;66.20;;;;;;5055359;28;20132;-72
2021/11/04 09:07:33;;;;;;;9.07;3.05;;;22.40;66.50;;;;;;5057313;28;20509;-66
2021/11/04 09:10:00;;;;;;;11.30;3.15;;;22.30;68.20;;;;;;5058370;28;20027;-66
2021/11/04 09:12:27;;;;;;;11.82;2.92;;;22.20;69.30;;;;;;5054616;28;20418;-66
2021/11/04 09:14:54;;;;;;;9.95;2.17;;;22.20;69.10;;;;;;5057474;28;20111;-67
2021/11/04 09:17:21;;;;;;;10.68;3.95;;;22.10;69.00;;;;;;5056068;28;20047;-67
2021/11/04 09:19:47;;;;;;;7.40;2.97;;;22.00;69.30;;;;;;5056626;28;20369;-67
2021/11/04 09:22:14;;;;;;;9.23;2.00;;;22.10;69.00;;;;;;5054166;28;20104;-67
2021/11/04 09:24:41;;;;;;;6.80;2.30;;;22.10;68.50;;;;;;5058747;28;22581;-66
2021/11/04 09:27:08;;;;;;;4.10;1.42;;;22.10;68.10;;;;;;5057954;28;20044;-70
2021/11/04 09:29:36;;;;;;;9.73;2.72;;;22.10;67.10;;;;;;5056901;28;20037;-67
2021/11/04 09:32:06;;;;;;;8.43;2.55;;;22.10;69.20;;;;;;5057436;28;20671;-66
2021/11/04 09:34:35;;;;;;;5.75;2.30;;;22.20;66.80;;;;;;5057952;28;20127;-69
2021/11/04 09:37:06;;;;;;;12.55;2.95;;;22.30;66.60;;;;;;5054032;28;20057;-66
2021/11/04 09:39:36;;;;;;;6.95;2.28;;;22.30;65.80;;;;;;5061334;28;20406;-66
2021/11/04 09:42:05;;;;;;;11.05;2.17;;;22.30;66.50;;;;;;5061491;28;20017;-71
2021/11/04 09:44:32;;;;;;;7.25;2.33;;;22.50;67.20;;;;;;5062128;28;20037;-70
2021/11/04 09:46:59;;;;;;;40.85;6.78;;;22.60;69.10;;;;;;5063161;28;20100;-70
2021/11/04 09:49:28;;;;;;;10.48;2.85;;;22.70;68.80;;;;;;5062958;28;20455;-69
2021/11/04 09:51:56;;;;;;;86.07;12.48;;;22.80;68.60;;;;;;5064404;28;20035;-69
2021/11/04 09:54:24;;;;;;;18.55;3.65;;;22.90;68.60;;;;;;5059635;28;20112;-68
2021/11/04 09:56:50;;;;;;;30.83;5.82;;;22.90;68.30;;;;;;5058994;28;20029;-69
2021/11/04 09:59:17;;;;;;;15.63;3.70;;;22.90;68.30;;;;;;5061010;28;20051;-69
2021/11/04 10:01:48;;;;;;;56.78;10.88;;;22.90;67.00;;;;;;5056084;28;20487;-68
2021/11/04 10:04:15;;;;;;;76.70;12.32;;;22.90;67.10;;;;;;5058704;28;20036;-69
2021/11/04 10:06:42;;;;;;;26.15;5.57;;;23.00;66.70;;;;;;5064471;28;20035;-69
2021/11/04 10:09:10;;;;;;;7.47;2.40;;;22.90;66.10;;;;;;5059219;28;20479;-68
2021/11/04 10:11:41;;;;;;;44.60;7.03;;;23.00;65.80;;;;;;5062450;28;20025;-69
2021/11/04 10:14:10;;;;;;;51.47;10.18;;;23.00;66.10;;;;;;5059146;28;20056;-69
2021/11/04 10:16:38;;;;;;;70.05;12.23;;;23.00;66.10;;;;;;5059473;28;20029;-69
2021/11/04 10:19:14;;;;;;;19.95;3.38;;;23.00;65.90;;;;;;5062950;28;20017;-69
2021/11/04 10:21:43;;;;;;;18.60;4.97;;;23.00;65.90;;;;;;5060541;28;20049;-71
2021/11/04 10:24:55;;;;;;;8.63;2.08;;;22.90;66.00;;;;;;5053874;28;20352;-69
2021/11/04 10:28:07;;;;;;;73.88;13.70;;;23.00;64.80;;;;;;5052822;28;20052;-70
2021/11/04 10:31:16;;;;;;;27.38;17.10;;;23.00;61.80;;;;;;5058229;28;20020;-69
2021/11/04 10:34:22;;;;;;;7.65;2.55;;;22.90;61.10;;;;;;5060768;28;20024;-69
2021/11/04 10:37:09;;;;;;;46.30;7.10;;;23.00;62.10;;;;;;5061093;28;20028;-70
2021/11/04 10:39:40;;;;;;;9.10;2.20;;;23.10;59.60;;;;;;5062329;28;20036;-69
2021/11/04 10:42:07;;;;;;;4.53;1.55;;;23.10;59.70;;;;;;5062336;28;20161;-70
2021/11/04 10:44:33;;;;;;;12.35;1.92;;;23.10;59.10;;;;;;5061186;28;20028;-70
2021/11/04 10:47:01;;;;;;;10.23;2.13;;;23.10;59.80;;;;;;5059130;28;20527;-69
2021/11/04 10:49:43;;;;;;;10.38;2.00;;;23.20;59.90;;;;;;5057153;28;20025;-71
2021/11/04 10:52:10;;;;;;;4.40;1.20;;;23.30;60.40;;;;;;5052107;28;20012;-70
2021/11/04 10:54:45;;;;;;;5.72;1.35;;;23.40;60.20;;;;;;5055331;28;20021;-69
2021/11/04 10:57:12;;;;;;;;;;;23.50;59.80;;;;;;5060813;28;20415;-69
2021/11/04 10:59:43;;;;;;;6.00;1.40;;;23.60;58.40;;;;;;5058130;28;20035;-68
2021/11/04 11:02:09;;;;;;;3.40;1.30;;;23.70;57.10;;;;;;5053449;28;20479;-69
2021/11/04 11:04:36;;;;;;;5.75;1.73;;;23.70;56.10;;;;;;5057845;28;20078;-69
2021/11/04 11:07:02;;;;;;;17.42;12.98;;;23.70;55.80;;;;;;5059968;28;20025;-70
2021/11/04 11:09:33;;;;;;;9.15;2.30;;;23.70;56.60;;;;;;5062410;28;20036;-70
2021/11/04 11:12:04;;;;;;;5.80;1.45;;;23.80;57.10;;;;;;5056386;28;20385;-68
2021/11/04 11:14:33;;;;;;;2.97;1.27;;;23.90;56.20;;;;;;5055263;28;20035;-68
2021/11/04 11:17:01;;;;;;;3.10;1.48;;;23.90;55.40;;;;;;5060782;28;20029;-68
2021/11/04 11:19:43;;;;;;;6.68;1.58;;;24.00;55.60;;;;;;5057551;28;20483;-70
2021/11/04 11:22:13;;;;;;;5.72;1.98;;;23.90;55.20;;;;;;5059407;28;20021;-68
2021/11/04 11:24:42;;;;;;;7.00;3.22;;;23.90;55.50;;;;;;5063679;28;20115;-68
2021/11/04 11:27:14;;;;;;;5.32;1.27;;;23.90;55.80;;;;;;5059274;28;20350;-69
2021/11/04 11:30:20;;;;;;;6.60;1.38;;;23.90;56.40;;;;;;5061946;28;20027;-68
2021/11/04 11:33:35;;;;;;;3.97;1.58;;;23.90;55.70;;;;;;5060910;28;20020;-68
2021/11/04 11:36:47;;;;;;;7.40;1.85;;;24.00;55.40;;;;;;5060433;28;20084;-68
2021/11/04 11:39:56;;;;;;;3.65;1.20;;;24.10;55.20;;;;;;5062873;28;20052;-71
2021/11/04 11:43:04;;;;;;;5.45;1.83;;;24.10;54.50;;;;;;5060946;28;20024;-69
2021/11/04 11:46:19;;;;;;;4.70;1.55;;;24.10;54.30;;;;;;5061563;28;20052;-71
2021/11/04 11:49:05;;;;;;;6.68;1.50;;;24.10;55.10;;;;;;5061716;28;20128;-70
2021/11/04 11:52:17;;;;;;;2.58;1.10;;;24.30;55.00;;;;;;5065032;28;20059;-70
2021/11/04 11:54:53;;;;;;;8.00;2.00;;;24.30;54.70;;;;;;5064142;28;20063;-69
2021/11/04 11:57:59;;;;;;;8.93;1.40;;;24.30;54.60;;;;;;5063369;28;20059;-71
2021/11/04 12:01:11;;;;;;;4.03;1.38;;;24.10;54.70;;;;;;5066224;28;20469;-69
2021/11/04 12:03:39;;;;;;;9.80;1.80;;;24.10;55.50;;;;;;5061247;28;20037;-70
2021/11/04 12:06:25;;;;;;;4.72;2.00;;;24.10;56.00;;;;;;5065495;28;20491;-69
2021/11/04 12:09:31;;;;;;;6.15;2.83;;;24.00;56.10;;;;;;5061945;28;20021;-68
2021/11/04 12:12:36;;;;;;;10.07;2.00;;;24.00;56.20;;;;;;5058845;28;20032;-67
2021/11/04 12:15:42;;;;;;;6.43;2.03;;;23.90;55.60;;;;;;5059387;28;20375;-69
2021/11/04 12:18:51;;;;;;;5.80;1.75;;;23.70;56.50;;;;;;5063627;28;20024;-69
2021/11/04 12:22:00;;;;;;;8.45;1.83;;;23.60;58.80;;;;;;5063541;28;20041;-68
2021/11/04 12:24:46;;;;;;;5.47;1.50;;;23.50;58.90;;;;;;5063427;28;20067;-68
2021/11/04 12:27:15;;;;;;;9.88;2.58;;;23.40;59.40;;;;;;5063346;28;20020;-69
2021/11/04 12:29:43;;;;;;;5.80;1.52;;;23.50;59.00;;;;;;5062888;28;20446;-70
2021/11/04 12:32:13;;;;;;;5.85;1.73;;;23.50;59.00;;;;;;5062651;28;20442;-67
2021/11/04 12:34:41;;;;;;;6.70;1.35;;;23.60;59.20;;;;;;5065387;28;20444;-68
2021/11/04 12:37:13;;;;;;;7.20;1.42;;;23.60;57.70;;;;;;5063199;28;20416;-69
2021/11/04 12:39:44;;;;;;;4.78;1.10;;;23.80;58.10;;;;;;5063604;28;20020;-67
2021/11/04 12:42:15;;;;;;;5.05;1.30;;;23.90;57.50;;;;;;5060790;28;20349;-71
2021/11/04 12:44:41;;;;;;;25.88;20.42;;;24.00;56.50;;;;;;5062252;28;20041;-69
2021/11/04 12:47:08;;;;;;;6.57;2.20;;;24.10;56.70;;;;;;5067248;28;20021;-68
2021/11/04 12:49:40;;;;;;;7.32;1.45;;;24.20;56.10;;;;;;5057196;28;20082;-70
2021/11/04 12:52:46;;;;;;;6.90;1.73;;;24.30;55.70;;;;;;5055439;28;20592;-70
2021/11/04 12:55:32;;;;;;;;;;;24.30;55.70;;;;;;5060934;28;20017;-70
2021/11/04 12:58:41;;;;;;;3.38;1.20;;;24.40;55.10;;;;;;5063460;28;19909;-69
2021/11/04 13:01:44;;;;;;;4.22;1.33;;;24.40;54.20;;;;;;5063326;28;20039;-67
2021/11/04 13:04:24;;;;;;;3.97;1.55;;;24.50;54.20;;;;;;5062976;28;20111;-67
2021/11/04 13:06:55;;;;;;;10.35;2.05;;;24.40;54.00;;;;;;5061090;28;20057;-67
2021/11/04 13:09:23;;;;;;;3.55;1.45;;;24.30;54.50;;;;;;5060056;28;20077;-72
2021/11/04 13:12:07;;;;;;;4.80;1.85;;;24.20;54.50;;;;;;5062786;28;20022;-68
2021/11/04 13:14:54;;;;;;;7.88;2.28;;;24.00;54.30;;;;;;5060005;28;20020;-67
2021/11/04 13:17:37;;;;;;;5.93;1.15;;;23.90;55.10;;;;;;5054095;28;20052;-65
2021/11/04 13:20:05;;;;;;;16.55;2.65;;;23.80;55.60;;;;;;5060732;28;20025;-67
2021/11/04 13:23:11;;;;;;;6.38;1.30;;;23.80;56.30;;;;;;5055480;28;20047;-66
2021/11/04 13:25:47;;;;;;;6.72;1.73;;;23.90;57.30;;;;;;5064196;28;20090;-67